Terminal Aerodrome Forecast
Issued by NWS

Home | Current Version | Previous Version | Text Only | Print | Product List | Glossary On
Versions: 1 2 3 4 5 6 7 8 9 10 11 12
000
FTUS45 KPSR 271120
TAFIWA
TAF
KIWA 271120Z 2712/2812 11008KT P6SM SCT110 SCT150 BKN200
     FM271600 10015G24KT P6SM FEW100 SCT150 BKN200
     FM272300 09006KT P6SM VCSH SCT080 BKN140 BKN200
      AMD LTD TO CLD VIS AND WIND TIL 271300=

USA.gov is the U.S. government's official web portal to all federal, state and local government web resources and services.